sensor_id;sensor_type;location;lat;lon;timestamp;P1;durP1;ratioP1;P2;durP2;ratioP2
51358;SDS011;37448;51.588;7.248;2023-06-10T00:00:05;7.85;;;6.60;;
51358;SDS011;37448;51.588;7.248;2023-06-10T00:02:12;7.10;;;6.22;;
51358;SDS011;37448;51.588;7.248;2023-06-10T00:04:13;8.07;;;7.10;;
51358;SDS011;37448;51.588;7.248;2023-06-10T00:06:14;9.50;;;7.13;;
51358;SDS011;37448;51.588;7.248;2023-06-10T00:08:15;8.63;;;6.40;;
51358;SDS011;37448;51.588;7.248;2023-06-10T00:10:19;7.63;;;6.05;;
51358;SDS011;37448;51.588;7.248;2023-06-10T00:12:20;7.40;;;6.50;;
51358;SDS011;37448;51.588;7.248;2023-06-10T00:14:20;9.23;;;6.63;;
51358;SDS011;37448;51.588;7.248;2023-06-10T00:16:20;7.78;;;6.72;;
51358;SDS011;37448;51.588;7.248;2023-06-10T00:18:21;8.65;;;6.35;;
51358;SDS011;37448;51.588;7.248;2023-06-10T00:20:22;8.90;;;6.80;;
51358;SDS011;37448;51.588;7.248;2023-06-10T00:22:23;8.13;;;6.68;;
51358;SDS011;37448;51.588;7.248;2023-06-10T00:24:29;8.98;;;6.35;;
51358;SDS011;37448;51.588;7.248;2023-06-10T00:26:29;8.15;;;6.15;;
51358;SDS011;37448;51.588;7.248;2023-06-10T00:28:30;9.48;;;6.72;;
51358;SDS011;37448;51.588;7.248;2023-06-10T00:30:30;8.23;;;6.13;;
51358;SDS011;37448;51.588;7.248;2023-06-10T00:32:30;8.73;;;6.38;;
51358;SDS011;37448;51.588;7.248;2023-06-10T00:34:31;9.77;;;7.22;;
51358;SDS011;37448;51.588;7.248;2023-06-10T00:36:32;9.73;;;6.50;;
51358;SDS011;37448;51.588;7.248;2023-06-10T00:38:32;8.65;;;6.57;;
51358;SDS011;37448;51.588;7.248;2023-06-10T00:40:35;11.82;;;8.73;;
51358;SDS011;37448;51.588;7.248;2023-06-10T00:42:39;8.80;;;7.18;;
51358;SDS011;37448;51.588;7.248;2023-06-10T00:44:40;9.20;;;6.65;;
51358;SDS011;37448;51.588;7.248;2023-06-10T00:46:40;9.55;;;6.75;;
51358;SDS011;37448;51.588;7.248;2023-06-10T00:48:41;11.40;;;6.43;;
51358;SDS011;37448;51.588;7.248;2023-06-10T00:50:43;9.25;;;7.03;;
51358;SDS011;37448;51.588;7.248;2023-06-10T00:52:45;8.98;;;7.00;;
51358;SDS011;37448;51.588;7.248;2023-06-10T00:56:49;8.75;;;6.75;;
51358;SDS011;37448;51.588;7.248;2023-06-10T00:58:50;8.52;;;6.95;;
51358;SDS011;37448;51.588;7.248;2023-06-10T01:00:51;9.27;;;6.70;;
51358;SDS011;37448;51.588;7.248;2023-06-10T01:02:52;8.35;;;7.07;;
51358;SDS011;37448;51.588;7.248;2023-06-10T01:04:53;8.00;;;7.20;;
51358;SDS011;37448;51.588;7.248;2023-06-10T01:07:05;9.30;;;6.80;;
51358;SDS011;37448;51.588;7.248;2023-06-10T01:11:21;9.48;;;7.15;;
51358;SDS011;37448;51.588;7.248;2023-06-10T01:13:29;11.18;;;8.20;;
51358;SDS011;37448;51.588;7.248;2023-06-10T01:15:31;10.48;;;7.43;;
51358;SDS011;37448;51.588;7.248;2023-06-10T01:17:33;11.38;;;7.35;;
51358;SDS011;37448;51.588;7.248;2023-06-10T01:19:33;10.68;;;7.40;;
51358;SDS011;37448;51.588;7.248;2023-06-10T01:21:37;8.50;;;7.35;;
51358;SDS011;37448;51.588;7.248;2023-06-10T01:23:39;13.38;;;7.70;;
51358;SDS011;37448;51.588;7.248;2023-06-10T01:25:41;12.48;;;8.13;;
51358;SDS011;37448;51.588;7.248;2023-06-10T01:27:49;10.85;;;7.38;;
51358;SDS011;37448;51.588;7.248;2023-06-10T01:29:52;11.93;;;8.27;;
51358;SDS011;37448;51.588;7.248;2023-06-10T01:32:15;10.30;;;7.47;;
51358;SDS011;37448;51.588;7.248;2023-06-10T01:34:18;10.65;;;8.10;;
51358;SDS011;37448;51.588;7.248;2023-06-10T01:36:21;9.85;;;7.78;;
51358;SDS011;37448;51.588;7.248;2023-06-10T01:38:22;9.90;;;8.35;;
51358;SDS011;37448;51.588;7.248;2023-06-10T01:40:25;12.00;;;8.82;;
51358;SDS011;37448;51.588;7.248;2023-06-10T01:42:26;12.25;;;7.82;;
51358;SDS011;37448;51.588;7.248;2023-06-10T01:44:28;11.85;;;9.40;;
51358;SDS011;37448;51.588;7.248;2023-06-10T01:46:28;10.07;;;7.72;;
51358;SDS011;37448;51.588;7.248;2023-06-10T01:48:29;10.75;;;8.38;;
51358;SDS011;37448;51.588;7.248;2023-06-10T01:50:30;10.40;;;7.88;;
51358;SDS011;37448;51.588;7.248;2023-06-10T01:52:31;10.68;;;8.48;;
51358;SDS011;37448;51.588;7.248;2023-06-10T01:54:31;11.48;;;8.13;;
51358;SDS011;37448;51.588;7.248;2023-06-10T01:56:34;10.40;;;7.63;;
51358;SDS011;37448;51.588;7.248;2023-06-10T01:58:35;11.93;;;8.50;;
51358;SDS011;37448;51.588;7.248;2023-06-10T02:00:36;13.05;;;8.05;;
51358;SDS011;37448;51.588;7.248;2023-06-10T02:02:36;10.40;;;9.13;;
51358;SDS011;37448;51.588;7.248;2023-06-10T02:04:36;9.82;;;8.57;;
51358;SDS011;37448;51.588;7.248;2023-06-10T02:06:37;12.50;;;8.40;;
51358;SDS011;37448;51.588;7.248;2023-06-10T02:08:37;10.48;;;8.48;;
51358;SDS011;37448;51.588;7.248;2023-06-10T02:10:38;14.10;;;7.75;;
51358;SDS011;37448;51.588;7.248;2023-06-10T02:12:38;12.07;;;8.35;;
51358;SDS011;37448;51.588;7.248;2023-06-10T02:14:38;10.93;;;8.63;;
51358;SDS011;37448;51.588;7.248;2023-06-10T02:16:39;11.10;;;7.75;;
51358;SDS011;37448;51.588;7.248;2023-06-10T02:18:41;10.02;;;8.27;;
51358;SDS011;37448;51.588;7.248;2023-06-10T02:20:43;12.48;;;8.82;;
51358;SDS011;37448;51.588;7.248;2023-06-10T02:22:43;10.43;;;8.45;;
51358;SDS011;37448;51.588;7.248;2023-06-10T02:24:43;11.60;;;8.02;;
51358;SDS011;37448;51.588;7.248;2023-06-10T02:26:44;10.13;;;8.20;;
51358;SDS011;37448;51.588;7.248;2023-06-10T02:28:45;12.52;;;8.63;;
51358;SDS011;37448;51.588;7.248;2023-06-10T02:30:46;12.52;;;8.18;;
51358;SDS011;37448;51.588;7.248;2023-06-10T02:32:48;10.55;;;8.48;;
51358;SDS011;37448;51.588;7.248;2023-06-10T02:34:50;12.40;;;9.02;;
51358;SDS011;37448;51.588;7.248;2023-06-10T02:36:51;11.85;;;8.00;;
51358;SDS011;37448;51.588;7.248;2023-06-10T02:38:53;10.50;;;8.20;;
51358;SDS011;37448;51.588;7.248;2023-06-10T02:40:53;9.98;;;8.23;;
51358;SDS011;37448;51.588;7.248;2023-06-10T02:42:54;10.15;;;7.55;;
51358;SDS011;37448;51.588;7.248;2023-06-10T02:44:54;11.93;;;8.00;;
51358;SDS011;37448;51.588;7.248;2023-06-10T02:47:06;10.65;;;7.95;;
51358;SDS011;37448;51.588;7.248;2023-06-10T02:49:08;9.05;;;8.07;;
51358;SDS011;37448;51.588;7.248;2023-06-10T02:51:10;10.02;;;8.07;;
51358;SDS011;37448;51.588;7.248;2023-06-10T02:53:14;11.25;;;9.38;;
51358;SDS011;37448;51.588;7.248;2023-06-10T02:55:19;10.35;;;8.02;;
51358;SDS011;37448;51.588;7.248;2023-06-10T02:57:24;11.98;;;8.93;;
51358;SDS011;37448;51.588;7.248;2023-06-10T02:59:25;9.98;;;8.32;;
51358;SDS011;37448;51.588;7.248;2023-06-10T03:01:27;9.98;;;8.05;;
51358;SDS011;37448;51.588;7.248;2023-06-10T03:03:34;12.15;;;7.78;;
51358;SDS011;37448;51.588;7.248;2023-06-10T03:05:40;10.38;;;8.48;;
51358;SDS011;37448;51.588;7.248;2023-06-10T03:07:41;10.57;;;8.20;;
51358;SDS011;37448;51.588;7.248;2023-06-10T03:09:41;12.32;;;8.38;;
51358;SDS011;37448;51.588;7.248;2023-06-10T03:11:44;12.52;;;8.75;;
51358;SDS011;37448;51.588;7.248;2023-06-10T03:13:45;10.50;;;8.65;;
51358;SDS011;37448;51.588;7.248;2023-06-10T03:15:49;11.32;;;8.02;;
51358;SDS011;37448;51.588;7.248;2023-06-10T03:17:52;9.27;;;7.88;;
51358;SDS011;37448;51.588;7.248;2023-06-10T03:19:53;12.55;;;7.85;;
51358;SDS011;37448;51.588;7.248;2023-06-10T03:22:07;8.90;;;7.40;;
51358;SDS011;37448;51.588;7.248;2023-06-10T03:24:35;10.02;;;7.82;;
51358;SDS011;37448;51.588;7.248;2023-06-10T03:26:37;9.57;;;7.78;;
51358;SDS011;37448;51.588;7.248;2023-06-10T03:28:39;11.52;;;7.85;;
51358;SDS011;37448;51.588;7.248;2023-06-10T03:30:41;12.40;;;7.72;;
51358;SDS011;37448;51.588;7.248;2023-06-10T03:32:41;10.43;;;7.93;;
51358;SDS011;37448;51.588;7.248;2023-06-10T03:34:43;10.80;;;7.90;;
51358;SDS011;37448;51.588;7.248;2023-06-10T03:36:45;9.98;;;7.03;;
51358;SDS011;37448;51.588;7.248;2023-06-10T03:38:45;8.65;;;7.15;;
51358;SDS011;37448;51.588;7.248;2023-06-10T03:40:46;11.88;;;7.97;;
51358;SDS011;37448;51.588;7.248;2023-06-10T03:42:47;11.70;;;7.60;;
51358;SDS011;37448;51.588;7.248;2023-06-10T03:44:50;11.48;;;8.27;;
51358;SDS011;37448;51.588;7.248;2023-06-10T03:46:50;9.90;;;7.60;;
51358;SDS011;37448;51.588;7.248;2023-06-10T03:48:52;10.48;;;6.85;;
51358;SDS011;37448;51.588;7.248;2023-06-10T03:50:53;12.32;;;8.10;;
51358;SDS011;37448;51.588;7.248;2023-06-10T03:52:54;11.55;;;6.97;;
51358;SDS011;37448;51.588;7.248;2023-06-10T03:54:58;9.57;;;7.13;;
51358;SDS011;37448;51.588;7.248;2023-06-10T03:56:59;12.43;;;6.75;;
51358;SDS011;37448;51.588;7.248;2023-06-10T03:59:00;10.27;;;6.97;;
51358;SDS011;37448;51.588;7.248;2023-06-10T04:01:01;11.68;;;7.03;;
51358;SDS011;37448;51.588;7.248;2023-06-10T04:03:08;8.88;;;7.05;;
51358;SDS011;37448;51.588;7.248;2023-06-10T04:05:14;10.20;;;6.60;;
51358;SDS011;37448;51.588;7.248;2023-06-10T04:07:15;11.18;;;6.30;;
51358;SDS011;37448;51.588;7.248;2023-06-10T04:09:16;12.30;;;6.72;;
51358;SDS011;37448;51.588;7.248;2023-06-10T04:11:17;9.32;;;6.88;;
51358;SDS011;37448;51.588;7.248;2023-06-10T04:13:19;10.20;;;6.20;;
51358;SDS011;37448;51.588;7.248;2023-06-10T04:15:27;12.07;;;7.13;;
51358;SDS011;37448;51.588;7.248;2023-06-10T04:17:28;10.68;;;6.35;;
51358;SDS011;37448;51.588;7.248;2023-06-10T04:19:28;10.43;;;6.63;;
51358;SDS011;37448;51.588;7.248;2023-06-10T04:21:31;11.88;;;6.70;;
51358;SDS011;37448;51.588;7.248;2023-06-10T04:23:32;9.23;;;6.65;;
51358;SDS011;37448;51.588;7.248;2023-06-10T04:25:33;9.75;;;6.68;;
51358;SDS011;37448;51.588;7.248;2023-06-10T04:27:34;10.23;;;6.15;;
51358;SDS011;37448;51.588;7.248;2023-06-10T04:29:35;10.68;;;6.35;;
51358;SDS011;37448;51.588;7.248;2023-06-10T04:31:35;10.35;;;6.20;;
51358;SDS011;37448;51.588;7.248;2023-06-10T04:33:36;10.30;;;6.43;;
51358;SDS011;37448;51.588;7.248;2023-06-10T04:35:37;9.43;;;5.95;;
51358;SDS011;37448;51.588;7.248;2023-06-10T04:39:41;9.00;;;6.25;;
51358;SDS011;37448;51.588;7.248;2023-06-10T04:41:42;7.93;;;5.47;;
51358;SDS011;37448;51.588;7.248;2023-06-10T04:43:43;11.07;;;7.15;;
51358;SDS011;37448;51.588;7.248;2023-06-10T04:45:43;9.63;;;5.97;;
51358;SDS011;37448;51.588;7.248;2023-06-10T04:47:47;8.02;;;5.40;;
51358;SDS011;37448;51.588;7.248;2023-06-10T04:49:47;8.90;;;5.75;;
51358;SDS011;37448;51.588;7.248;2023-06-10T04:51:48;9.35;;;6.32;;
51358;SDS011;37448;51.588;7.248;2023-06-10T04:53:48;9.45;;;5.65;;
51358;SDS011;37448;51.588;7.248;2023-06-10T04:55:48;8.60;;;5.32;;
51358;SDS011;37448;51.588;7.248;2023-06-10T04:57:49;11.23;;;5.28;;
51358;SDS011;37448;51.588;7.248;2023-06-10T04:59:50;8.00;;;5.60;;
51358;SDS011;37448;51.588;7.248;2023-06-10T05:01:50;6.80;;;5.13;;
51358;SDS011;37448;51.588;7.248;2023-06-10T05:03:51;7.03;;;5.05;;
51358;SDS011;37448;51.588;7.248;2023-06-10T05:05:51;10.50;;;5.28;;
51358;SDS011;37448;51.588;7.248;2023-06-10T05:07:52;8.23;;;5.10;;
51358;SDS011;37448;51.588;7.248;2023-06-10T05:09:52;7.82;;;5.20;;
51358;SDS011;37448;51.588;7.248;2023-06-10T05:11:54;8.77;;;5.50;;
51358;SDS011;37448;51.588;7.248;2023-06-10T05:13:54;9.38;;;5.35;;
51358;SDS011;37448;51.588;7.248;2023-06-10T05:15:55;7.95;;;5.20;;
51358;SDS011;37448;51.588;7.248;2023-06-10T05:17:56;8.60;;;4.90;;
51358;SDS011;37448;51.588;7.248;2023-06-10T05:19:57;6.55;;;5.07;;
51358;SDS011;37448;51.588;7.248;2023-06-10T05:21:57;7.20;;;5.43;;
51358;SDS011;37448;51.588;7.248;2023-06-10T05:23:58;8.30;;;4.97;;
51358;SDS011;37448;51.588;7.248;2023-06-10T05:25:58;7.63;;;4.90;;
51358;SDS011;37448;51.588;7.248;2023-06-10T05:27:59;9.23;;;5.30;;
51358;SDS011;37448;51.588;7.248;2023-06-10T05:30:00;9.02;;;5.18;;
51358;SDS011;37448;51.588;7.248;2023-06-10T05:32:00;9.90;;;4.82;;
51358;SDS011;37448;51.588;7.248;2023-06-10T05:34:03;6.82;;;4.65;;
51358;SDS011;37448;51.588;7.248;2023-06-10T05:36:03;7.10;;;4.75;;
51358;SDS011;37448;51.588;7.248;2023-06-10T05:38:04;10.50;;;4.88;;
51358;SDS011;37448;51.588;7.248;2023-06-10T05:40:04;6.78;;;5.00;;
51358;SDS011;37448;51.588;7.248;2023-06-10T05:42:06;6.05;;;5.00;;
51358;SDS011;37448;51.588;7.248;2023-06-10T05:44:07;6.38;;;4.75;;
51358;SDS011;37448;51.588;7.248;2023-06-10T05:46:07;7.90;;;5.00;;
51358;SDS011;37448;51.588;7.248;2023-06-10T05:48:08;6.25;;;4.47;;
51358;SDS011;37448;51.588;7.248;2023-06-10T05:50:08;7.63;;;4.57;;
51358;SDS011;37448;51.588;7.248;2023-06-10T05:52:10;6.93;;;4.40;;
51358;SDS011;37448;51.588;7.248;2023-06-10T05:54:10;7.45;;;5.00;;
51358;SDS011;37448;51.588;7.248;2023-06-10T05:56:10;7.38;;;4.50;;
51358;SDS011;37448;51.588;7.248;2023-06-10T05:58:11;7.47;;;4.95;;
51358;SDS011;37448;51.588;7.248;2023-06-10T06:00:12;6.75;;;5.00;;
51358;SDS011;37448;51.588;7.248;2023-06-10T06:02:13;6.22;;;4.45;;
51358;SDS011;37448;51.588;7.248;2023-06-10T06:04:13;10.05;;;4.43;;
51358;SDS011;37448;51.588;7.248;2023-06-10T06:06:14;9.60;;;5.05;;
51358;SDS011;37448;51.588;7.248;2023-06-10T06:08:14;7.43;;;4.38;;
51358;SDS011;37448;51.588;7.248;2023-06-10T06:10:17;10.20;;;4.55;;
51358;SDS011;37448;51.588;7.248;2023-06-10T06:12:18;7.78;;;4.03;;
51358;SDS011;37448;51.588;7.248;2023-06-10T06:14:19;7.50;;;4.60;;
51358;SDS011;37448;51.588;7.248;2023-06-10T06:16:19;7.47;;;4.45;;
51358;SDS011;37448;51.588;7.248;2023-06-10T06:18:19;8.10;;;5.00;;
51358;SDS011;37448;51.588;7.248;2023-06-10T06:20:20;5.05;;;4.35;;
51358;SDS011;37448;51.588;7.248;2023-06-10T06:22:20;7.10;;;4.10;;
51358;SDS011;37448;51.588;7.248;2023-06-10T06:24:22;5.70;;;4.32;;
51358;SDS011;37448;51.588;7.248;2023-06-10T06:26:22;5.53;;;4.40;;
51358;SDS011;37448;51.588;7.248;2023-06-10T06:28:22;6.10;;;4.15;;
51358;SDS011;37448;51.588;7.248;2023-06-10T06:30:23;6.18;;;4.55;;
51358;SDS011;37448;51.588;7.248;2023-06-10T06:32:24;7.20;;;4.25;;
51358;SDS011;37448;51.588;7.248;2023-06-10T06:34:27;7.18;;;4.35;;
51358;SDS011;37448;51.588;7.248;2023-06-10T06:36:27;5.70;;;4.72;;
51358;SDS011;37448;51.588;7.248;2023-06-10T06:38:28;8.93;;;4.70;;
51358;SDS011;37448;51.588;7.248;2023-06-10T06:40:28;5.28;;;4.60;;
51358;SDS011;37448;51.588;7.248;2023-06-10T06:42:29;4.97;;;4.20;;
51358;SDS011;37448;51.588;7.248;2023-06-10T06:44:43;7.68;;;4.70;;
51358;SDS011;37448;51.588;7.248;2023-06-10T06:46:43;6.97;;;4.15;;
51358;SDS011;37448;51.588;7.248;2023-06-10T06:48:44;6.95;;;4.53;;
51358;SDS011;37448;51.588;7.248;2023-06-10T06:50:44;5.55;;;3.80;;
51358;SDS011;37448;51.588;7.248;2023-06-10T06:52:44;9.70;;;4.25;;
51358;SDS011;37448;51.588;7.248;2023-06-10T06:54:45;6.43;;;4.15;;
51358;SDS011;37448;51.588;7.248;2023-06-10T06:56:45;8.13;;;4.35;;
51358;SDS011;37448;51.588;7.248;2023-06-10T06:58:45;5.90;;;4.35;;
51358;SDS011;37448;51.588;7.248;2023-06-10T07:00:46;6.63;;;4.25;;
51358;SDS011;37448;51.588;7.248;2023-06-10T07:02:46;7.45;;;4.10;;
51358;SDS011;37448;51.588;7.248;2023-06-10T07:04:46;6.53;;;4.30;;
51358;SDS011;37448;51.588;7.248;2023-06-10T07:06:49;4.50;;;3.90;;
51358;SDS011;37448;51.588;7.248;2023-06-10T07:08:50;6.32;;;4.22;;
51358;SDS011;37448;51.588;7.248;2023-06-10T07:10:51;6.07;;;4.15;;
51358;SDS011;37448;51.588;7.248;2023-06-10T07:12:51;5.70;;;3.58;;
51358;SDS011;37448;51.588;7.248;2023-06-10T07:14:52;4.78;;;3.65;;
51358;SDS011;37448;51.588;7.248;2023-06-10T07:16:52;6.18;;;4.40;;
51358;SDS011;37448;51.588;7.248;2023-06-10T07:18:53;5.28;;;3.85;;
51358;SDS011;37448;51.588;7.248;2023-06-10T07:20:53;8.02;;;3.95;;
51358;SDS011;37448;51.588;7.248;2023-06-10T07:22:54;7.70;;;4.47;;
51358;SDS011;37448;51.588;7.248;2023-06-10T07:24:54;5.90;;;3.83;;
51358;SDS011;37448;51.588;7.248;2023-06-10T07:26:55;6.72;;;4.05;;
51358;SDS011;37448;51.588;7.248;2023-06-10T07:28:55;5.53;;;3.72;;
51358;SDS011;37448;51.588;7.248;2023-06-10T07:30:56;6.80;;;3.85;;
51358;SDS011;37448;51.588;7.248;2023-06-10T07:32:56;8.13;;;4.97;;
51358;SDS011;37448;51.588;7.248;2023-06-10T07:34:56;6.82;;;4.32;;
51358;SDS011;37448;51.588;7.248;2023-06-10T07:36:57;6.05;;;4.72;;
51358;SDS011;37448;51.588;7.248;2023-06-10T07:38:57;6.47;;;4.80;;
51358;SDS011;37448;51.588;7.248;2023-06-10T07:40:58;6.05;;;3.72;;
51358;SDS011;37448;51.588;7.248;2023-06-10T07:42:58;4.90;;;4.18;;
51358;SDS011;37448;51.588;7.248;2023-06-10T07:44:59;5.53;;;4.15;;
51358;SDS011;37448;51.588;7.248;2023-06-10T07:47:00;4.43;;;3.60;;
51358;SDS011;37448;51.588;7.248;2023-06-10T07:49:00;4.78;;;3.90;;
51358;SDS011;37448;51.588;7.248;2023-06-10T07:51:01;6.85;;;4.20;;
51358;SDS011;37448;51.588;7.248;2023-06-10T07:53:01;4.72;;;3.83;;
51358;SDS011;37448;51.588;7.248;2023-06-10T07:55:02;7.70;;;3.92;;
51358;SDS011;37448;51.588;7.248;2023-06-10T07:57:02;5.43;;;3.90;;
51358;SDS011;37448;51.588;7.248;2023-06-10T07:59:03;5.43;;;3.67;;
51358;SDS011;37448;51.588;7.248;2023-06-10T08:01:03;4.25;;;3.60;;
51358;SDS011;37448;51.588;7.248;2023-06-10T08:03:04;5.90;;;4.22;;
51358;SDS011;37448;51.588;7.248;2023-06-10T08:05:05;5.93;;;3.30;;
51358;SDS011;37448;51.588;7.248;2023-06-10T08:07:05;6.50;;;4.80;;
51358;SDS011;37448;51.588;7.248;2023-06-10T08:09:05;5.85;;;4.18;;
51358;SDS011;37448;51.588;7.248;2023-06-10T08:11:06;7.13;;;4.05;;
51358;SDS011;37448;51.588;7.248;2023-06-10T08:13:07;6.10;;;4.40;;
51358;SDS011;37448;51.588;7.248;2023-06-10T08:15:08;6.75;;;3.90;;
51358;SDS011;37448;51.588;7.248;2023-06-10T08:17:09;6.03;;;4.10;;
51358;SDS011;37448;51.588;7.248;2023-06-10T08:19:10;6.20;;;4.20;;
51358;SDS011;37448;51.588;7.248;2023-06-10T08:21:11;5.53;;;4.03;;
51358;SDS011;37448;51.588;7.248;2023-06-10T08:23:12;7.32;;;3.92;;
51358;SDS011;37448;51.588;7.248;2023-06-10T08:25:12;6.40;;;4.32;;
51358;SDS011;37448;51.588;7.248;2023-06-10T08:27:12;7.22;;;4.47;;
51358;SDS011;37448;51.588;7.248;2023-06-10T08:29:13;6.70;;;4.10;;
51358;SDS011;37448;51.588;7.248;2023-06-10T08:31:13;7.35;;;3.95;;
51358;SDS011;37448;51.588;7.248;2023-06-10T08:33:14;5.95;;;4.00;;
51358;SDS011;37448;51.588;7.248;2023-06-10T08:35:14;7.32;;;3.85;;
51358;SDS011;37448;51.588;7.248;2023-06-10T08:37:15;5.07;;;4.00;;
51358;SDS011;37448;51.588;7.248;2023-06-10T08:39:15;7.28;;;3.90;;
51358;SDS011;37448;51.588;7.248;2023-06-10T08:41:17;9.50;;;4.22;;
51358;SDS011;37448;51.588;7.248;2023-06-10T08:44:02;7.20;;;3.65;;
51358;SDS011;37448;51.588;7.248;2023-06-10T08:45:41;6.57;;;3.95;;
51358;SDS011;37448;51.588;7.248;2023-06-10T08:47:45;8.13;;;4.38;;
51358;SDS011;37448;51.588;7.248;2023-06-10T08:49:49;5.57;;;3.70;;
51358;SDS011;37448;51.588;7.248;2023-06-10T08:51:57;6.15;;;4.10;;
51358;SDS011;37448;51.588;7.248;2023-06-10T08:54:02;5.68;;;3.85;;
51358;SDS011;37448;51.588;7.248;2023-06-10T08:56:09;5.10;;;3.35;;
51358;SDS011;37448;51.588;7.248;2023-06-10T08:58:10;4.68;;;4.13;;
51358;SDS011;37448;51.588;7.248;2023-06-10T09:00:12;7.13;;;4.15;;
51358;SDS011;37448;51.588;7.248;2023-06-10T09:02:13;6.65;;;4.50;;
51358;SDS011;37448;51.588;7.248;2023-06-10T09:04:14;7.50;;;4.22;;
51358;SDS011;37448;51.588;7.248;2023-06-10T09:06:17;6.00;;;3.97;;
51358;SDS011;37448;51.588;7.248;2023-06-10T09:08:18;5.38;;;3.83;;
51358;SDS011;37448;51.588;7.248;2023-06-10T09:10:19;4.80;;;3.60;;
51358;SDS011;37448;51.588;7.248;2023-06-10T09:12:20;8.18;;;4.22;;
51358;SDS011;37448;51.588;7.248;2023-06-10T09:14:20;8.48;;;4.28;;
51358;SDS011;37448;51.588;7.248;2023-06-10T09:16:20;4.80;;;4.22;;
51358;SDS011;37448;51.588;7.248;2023-06-10T09:18:21;5.38;;;3.95;;
51358;SDS011;37448;51.588;7.248;2023-06-10T09:20:22;6.70;;;4.30;;
51358;SDS011;37448;51.588;7.248;2023-06-10T09:22:23;7.05;;;3.97;;
51358;SDS011;37448;51.588;7.248;2023-06-10T09:24:24;5.28;;;3.70;;
51358;SDS011;37448;51.588;7.248;2023-06-10T09:26:28;6.53;;;4.00;;
51358;SDS011;37448;51.588;7.248;2023-06-10T09:28:29;4.95;;;4.13;;
51358;SDS011;37448;51.588;7.248;2023-06-10T09:30:31;6.85;;;3.95;;
51358;SDS011;37448;51.588;7.248;2023-06-10T09:32:37;5.30;;;4.47;;
51358;SDS011;37448;51.588;7.248;2023-06-10T09:34:39;4.55;;;4.10;;
51358;SDS011;37448;51.588;7.248;2023-06-10T09:36:40;6.97;;;4.38;;
51358;SDS011;37448;51.588;7.248;2023-06-10T09:38:41;5.63;;;3.97;;
51358;SDS011;37448;51.588;7.248;2023-06-10T09:40:50;8.30;;;4.38;;
51358;SDS011;37448;51.588;7.248;2023-06-10T09:42:52;8.55;;;4.22;;
51358;SDS011;37448;51.588;7.248;2023-06-10T09:44:56;7.70;;;4.25;;
51358;SDS011;37448;51.588;7.248;2023-06-10T09:46:56;5.63;;;4.07;;
51358;SDS011;37448;51.588;7.248;2023-06-10T09:48:59;6.28;;;4.80;;
51358;SDS011;37448;51.588;7.248;2023-06-10T09:50:59;7.80;;;4.60;;
51358;SDS011;37448;51.588;7.248;2023-06-10T09:52:59;6.50;;;4.30;;
51358;SDS011;37448;51.588;7.248;2023-06-10T09:55:02;6.47;;;4.10;;
51358;SDS011;37448;51.588;7.248;2023-06-10T09:57:06;4.63;;;4.13;;
51358;SDS011;37448;51.588;7.248;2023-06-10T09:59:09;5.25;;;4.53;;
51358;SDS011;37448;51.588;7.248;2023-06-10T10:01:10;6.82;;;4.28;;
51358;SDS011;37448;51.588;7.248;2023-06-10T10:03:11;6.22;;;4.57;;
51358;SDS011;37448;51.588;7.248;2023-06-10T10:05:22;7.40;;;4.40;;
51358;SDS011;37448;51.588;7.248;2023-06-10T10:07:23;5.88;;;3.97;;
51358;SDS011;37448;51.588;7.248;2023-06-10T10:09:23;7.57;;;4.32;;
51358;SDS011;37448;51.588;7.248;2023-06-10T10:11:24;6.28;;;4.50;;
51358;SDS011;37448;51.588;7.248;2023-06-10T10:13:26;5.70;;;4.40;;
51358;SDS011;37448;51.588;7.248;2023-06-10T10:15:28;5.15;;;4.32;;
51358;SDS011;37448;51.588;7.248;2023-06-10T10:17:32;4.22;;;3.83;;
51358;SDS011;37448;51.588;7.248;2023-06-10T10:19:35;5.32;;;4.57;;
51358;SDS011;37448;51.588;7.248;2023-06-10T10:21:44;5.93;;;4.90;;
51358;SDS011;37448;51.588;7.248;2023-06-10T10:24:08;5.68;;;4.32;;
51358;SDS011;37448;51.588;7.248;2023-06-10T10:26:12;5.78;;;4.20;;
51358;SDS011;37448;51.588;7.248;2023-06-10T10:28:13;5.55;;;4.30;;
51358;SDS011;37448;51.588;7.248;2023-06-10T10:30:20;5.60;;;5.05;;
51358;SDS011;37448;51.588;7.248;2023-06-10T10:36:41;5.57;;;4.63;;
51358;SDS011;37448;51.588;7.248;2023-06-10T10:38:42;5.15;;;4.65;;
51358;SDS011;37448;51.588;7.248;2023-06-10T10:40:43;5.40;;;4.57;;
51358;SDS011;37448;51.588;7.248;2023-06-10T10:42:45;7.05;;;5.15;;
51358;SDS011;37448;51.588;7.248;2023-06-10T10:44:48;5.18;;;4.68;;
51358;SDS011;37448;51.588;7.248;2023-06-10T10:46:50;6.00;;;4.43;;
51358;SDS011;37448;51.588;7.248;2023-06-10T10:48:54;6.85;;;4.55;;
51358;SDS011;37448;51.588;7.248;2023-06-10T10:50:57;8.00;;;4.18;;
51358;SDS011;37448;51.588;7.248;2023-06-10T10:54:58;5.30;;;4.53;;
51358;SDS011;37448;51.588;7.248;2023-06-10T10:57:14;4.78;;;4.28;;
51358;SDS011;37448;51.588;7.248;2023-06-10T10:59:16;8.27;;;4.70;;
51358;SDS011;37448;51.588;7.248;2023-06-10T11:01:19;5.82;;;4.60;;
51358;SDS011;37448;51.588;7.248;2023-06-10T11:03:20;4.80;;;4.35;;
51358;SDS011;37448;51.588;7.248;2023-06-10T11:05:30;5.82;;;4.47;;
51358;SDS011;37448;51.588;7.248;2023-06-10T11:07:51;5.18;;;4.68;;
51358;SDS011;37448;51.588;7.248;2023-06-10T11:09:59;5.85;;;4.88;;
51358;SDS011;37448;51.588;7.248;2023-06-10T11:12:00;5.40;;;4.75;;
51358;SDS011;37448;51.588;7.248;2023-06-10T11:16:06;6.80;;;4.80;;
51358;SDS011;37448;51.588;7.248;2023-06-10T11:20:13;6.70;;;5.20;;
51358;SDS011;37448;51.588;7.248;2023-06-10T11:22:59;5.43;;;4.82;;
51358;SDS011;37448;51.588;7.248;2023-06-10T11:25:01;7.20;;;4.95;;
51358;SDS011;37448;51.588;7.248;2023-06-10T11:27:21;5.68;;;4.50;;
51358;SDS011;37448;51.588;7.248;2023-06-10T11:29:22;7.47;;;4.80;;
51358;SDS011;37448;51.588;7.248;2023-06-10T11:33:31;6.47;;;5.05;;
51358;SDS011;37448;51.588;7.248;2023-06-10T11:35:32;6.82;;;4.82;;
51358;SDS011;37448;51.588;7.248;2023-06-10T11:37:33;5.97;;;5.35;;
51358;SDS011;37448;51.588;7.248;2023-06-10T11:39:33;7.15;;;5.13;;
51358;SDS011;37448;51.588;7.248;2023-06-10T11:41:34;5.68;;;4.95;;
51358;SDS011;37448;51.588;7.248;2023-06-10T11:43:37;4.85;;;4.32;;
51358;SDS011;37448;51.588;7.248;2023-06-10T11:45:43;5.72;;;5.22;;
51358;SDS011;37448;51.588;7.248;2023-06-10T11:47:59;7.00;;;5.53;;
51358;SDS011;37448;51.588;7.248;2023-06-10T11:49:59;5.80;;;5.28;;
51358;SDS011;37448;51.588;7.248;2023-06-10T11:52:00;5.63;;;5.13;;
51358;SDS011;37448;51.588;7.248;2023-06-10T11:54:00;5.70;;;4.65;;
51358;SDS011;37448;51.588;7.248;2023-06-10T11:56:01;6.10;;;4.88;;
51358;SDS011;37448;51.588;7.248;2023-06-10T11:58:01;6.95;;;4.82;;
51358;SDS011;37448;51.588;7.248;2023-06-10T12:00:05;5.13;;;4.68;;
51358;SDS011;37448;51.588;7.248;2023-06-10T12:02:15;6.72;;;5.03;;
51358;SDS011;37448;51.588;7.248;2023-06-10T12:04:16;7.50;;;5.25;;
51358;SDS011;37448;51.588;7.248;2023-06-10T12:06:18;6.75;;;5.03;;
51358;SDS011;37448;51.588;7.248;2023-06-10T12:08:18;5.18;;;4.63;;
51358;SDS011;37448;51.588;7.248;2023-06-10T12:10:19;4.90;;;4.47;;
51358;SDS011;37448;51.588;7.248;2023-06-10T12:12:19;5.45;;;4.35;;
51358;SDS011;37448;51.588;7.248;2023-06-10T12:16:58;7.55;;;5.63;;
51358;SDS011;37448;51.588;7.248;2023-06-10T12:19:02;8.75;;;4.90;;
51358;SDS011;37448;51.588;7.248;2023-06-10T12:21:14;7.07;;;5.60;;
51358;SDS011;37448;51.588;7.248;2023-06-10T12:23:18;6.50;;;5.00;;
51358;SDS011;37448;51.588;7.248;2023-06-10T12:25:23;7.15;;;5.40;;
51358;SDS011;37448;51.588;7.248;2023-06-10T12:27:25;5.47;;;4.97;;
51358;SDS011;37448;51.588;7.248;2023-06-10T12:29:28;8.30;;;5.43;;
51358;SDS011;37448;51.588;7.248;2023-06-10T12:31:29;8.27;;;5.15;;
51358;SDS011;37448;51.588;7.248;2023-06-10T12:33:30;8.63;;;5.72;;
51358;SDS011;37448;51.588;7.248;2023-06-10T12:35:30;5.90;;;5.22;;